| time (UTC) | temp F | wind direction | speed MPH | gust MPH | rain 1hr in | rain 24hr in | rain mn in | humidity % | barometer mb |
| 20260508225005 | 71 | 294 | 4.0 | 7.0 | 0.00 | 0.00 | 0.00 | 28 | 1000.6 |
| 20260508224506 | 71 | 254 | 3.0 | 10.0 | 0.00 | 0.00 | 0.00 | 27 | 1000.7 |
| 20260508224246 | 71 | 231 | 3.0 | 8.0 | 0.00 | 0.00 | 0.00 | 26 | 1000.7 |
| 20260508224037 | 71 | 238 | 3.0 | 10.0 | 0.00 | 0.00 | 0.00 | 27 | 1000.6 |
| 20260508223003 | 71 | 279 | 4.0 | 7.0 | 0.00 | 0.00 | 0.00 | 26 | 1000.8 |
| 20260508222732 | 71 | 267 | 3.0 | 9.0 | 0.00 | 0.00 | 0.00 | 25 | 1001.0 |
| 20260508222535 | 71 | 304 | 4.0 | 9.0 | 0.00 | 0.00 | 0.00 | 25 | 1001.0 |
| 20260508221926 | 71 | 289 | 4.0 | 8.0 | 0.00 | 0.00 | 0.00 | 28 | 1001.2 |
| 20260508221846 | 71 | 235 | 3.0 | 9.0 | 0.00 | 0.00 | 0.00 | 27 | 1000.9 |
| 20260508221557 | 71 | 267 | 3.0 | 9.0 | 0.00 | 0.00 | 0.00 | 26 | 1000.9 |
| 20260508220701 | 71 | 239 | 3.0 | 9.0 | 0.00 | 0.00 | 0.00 | 26 | 1001.1 |
| 20260508220358 | 71 | 284 | 4.0 | 8.0 | 0.00 | 0.00 | 0.00 | 29 | 1001.1 |
| 20260508220101 | 71 | 340 | 3.0 | 8.0 | 0.00 | 0.00 | 0.00 | 30 | 1001.1 |
| 20260508214503 | 71 | 275 | 4.0 | 10.0 | 0.00 | 0.00 | 0.00 | 28 | 1001.3 |
| 20260508214007 | 71 | 249 | 4.0 | 11.0 | 0.00 | 0.00 | 0.00 | 27 | 1001.3 |
| 20260508213502 | 71 | 298 | 3.0 | 11.0 | 0.00 | 0.00 | 0.00 | 28 | 1001.3 |
| 20260508213003 | 72 | 300 | 3.0 | 9.0 | 0.00 | 0.00 | 0.00 | 29 | 1001.3 |
| 20260508212505 | 72 | 291 | 4.0 | 10.0 | 0.00 | 0.00 | 0.00 | 27 | 1001.5 |
| 20260508212446 | 72 | 296 | 4.0 | 9.0 | 0.00 | 0.00 | 0.00 | 25 | 1001.7 |
| 20260508212123 | 72 | 284 | 4.0 | 10.0 | 0.00 | 0.00 | 0.00 | 28 | 1001.6 |
| 20260508211535 | 72 | 290 | 3.0 | 9.0 | 0.00 | 0.00 | 0.00 | 26 | 1001.6 |
| 20260508210503 | 72 | 244 | 6.0 | 11.0 | 0.00 | 0.00 | 0.00 | 24 | 1001.7 |
| 20260508210006 | 72 | 212 | 5.0 | 11.0 | 0.00 | 0.00 | 0.00 | 25 | 1001.7 |
| 20260508205502 | 72 | 300 | 4.0 | 8.0 | 0.00 | 0.00 | 0.00 | 25 | 1001.8 |
| 20260508205004 | 72 | 295 | 4.0 | 9.0 | 0.00 | 0.00 | 0.00 | 28 | 1001.9 |
| 20260508204733 | 71 | 286 | 5.0 | 16.0 | 0.00 | 0.00 | 0.00 | 28 | 1002.2 |
| 20260508204533 | 71 | 265 | 3.0 | 9.0 | 0.00 | 0.00 | 0.00 | 29 | 1002.2 |
| 20260508203503 | 71 | 273 | 7.0 | 16.0 | 0.00 | 0.00 | 0.00 | 27 | 1002.3 |
| 20260508202959 | 71 | 196 | 7.0 | 13.0 | 0.00 | 0.00 | 0.00 | 23 | 1002.4 |
| 20260508202459 | 71 | 226 | 5.0 | 13.0 | 0.00 | 0.00 | 0.00 | 26 | 1002.5 |
| 20260508202448 | 72 | 257 | 6.0 | 14.0 | 0.00 | 0.00 | 0.00 | 24 | 1002.8 |
| 20260508202428 | 72 | 263 | 5.0 | 11.0 | 0.00 | 0.00 | 0.00 | 26 | 1002.8 |
| 20260508202103 | 71 | 219 | 6.0 | 14.0 | 0.00 | 0.00 | 0.00 | 25 | 1002.6 |
| 20260508200744 | 72 | 253 | 4.0 | 8.0 | 0.00 | 0.00 | 0.00 | 25 | 1003.0 |
| 20260508200539 | 72 | 233 | 4.0 | 10.0 | 0.00 | 0.00 | 0.00 | 27 | 1003.0 |
| 20260508195503 | 72 | 225 | 4.0 | 11.0 | 0.00 | 0.00 | 0.00 | 30 | 1003.0 |
| 20260508195402 | 73 | 213 | 4.0 | 8.0 | 0.00 | 0.00 | 0.00 | 23 | 1003.2 |
| 20260508195339 | 73 | 273 | 5.0 | 9.0 | 0.00 | 0.00 | 0.00 | 27 | 1003.3 |
| 20260508195100 | 72 | 285 | 4.0 | 11.0 | 0.00 | 0.00 | 0.00 | 27 | 1003.1 |
| 20260508193451 | 73 | 303 | 4.0 | 9.0 | 0.00 | 0.00 | 0.00 | 27 | 1003.5 |
| 20260508192949 | 73 | 293 | 3.0 | 8.0 | 0.00 | 0.00 | 0.00 | 27 | 1003.5 |
| 20260508192449 | 72 | 300 | 4.0 | 9.0 | 0.00 | 0.00 | 0.00 | 27 | 1003.5 |
| 20260508191947 | 71 | 269 | 4.0 | 9.0 | 0.00 | 0.00 | 0.00 | 30 | 1003.6 |
| 20260508191447 | 71 | 223 | 4.0 | 7.0 | 0.00 | 0.00 | 0.00 | 29 | 1003.6 |
| 20260508190944 | 70 | 292 | 4.0 | 7.0 | 0.00 | 0.00 | 0.00 | 27 | 1003.6 |
| 20260508190445 | 70 | 291 | 5.0 | 11.0 | 0.00 | 0.00 | 0.00 | 27 | 1003.8 |
| 20260508185940 | 71 | 244 | 4.0 | 11.0 | 0.00 | 0.00 | 0.00 | 24 | 1003.9 |
| 20260508185438 | 71 | 275 | 4.0 | 9.0 | 0.00 | 0.00 | 0.00 | 31 | 1004.0 |
| 20260508184939 | 70 | 237 | 6.0 | 12.0 | 0.00 | 0.00 | 0.00 | 26 | 1004.0 |
| 20260508184440 | 71 | 198 | 5.0 | 12.0 | 0.00 | 0.00 | 0.00 | 24 | 1004.1 |
| 20260508183938 | 71 | 214 | 4.0 | 9.0 | 0.00 | 0.00 | 0.00 | 26 | 1004.2 |
| 20260508183715 | 70 | 197 | 4.0 | 13.0 | 0.00 | 0.00 | 0.00 | 28 | 1004.3 |
| 20260508183512 | 71 | 305 | 5.0 | 13.0 | 0.00 | 0.00 | 0.00 | 31 | 1004.1 |
| 20260508182712 | 69 | 253 | 3.0 | 9.0 | 0.00 | 0.00 | 0.00 | 29 | 1004.4 |
| 20260508182507 | 69 | 304 | 3.0 | 9.0 | 0.00 | 0.00 | 0.00 | 27 | 1004.3 |
| 20260508181440 | 68 | 223 | 4.0 | 8.0 | 0.00 | 0.00 | 0.00 | 30 | 1004.6 |
| 20260508181205 | 69 | 188 | 4.0 | 10.0 | 0.00 | 0.00 | 0.00 | 28 | 1004.6 |
| 20260508181007 | 69 | 265 | 5.0 | 8.0 | 0.00 | 0.00 | 0.00 | 27 | 1004.6 |
| 20260508175937 | 69 | 192 | 4.0 | 10.0 | 0.00 | 0.00 | 0.00 | 29 | 1004.7 |
| 20260508175438 | 69 | 293 | 4.0 | 8.0 | 0.00 | 0.00 | 0.00 | 29 | 1004.8 |
| 20260508174936 | 68 | 281 | 5.0 | 13.0 | 0.00 | 0.00 | 0.00 | 30 | 1004.8 |
| 20260508174434 | 68 | 256 | 6.0 | 14.0 | 0.00 | 0.00 | 0.00 | 30 | 1005.0 |
| 20260508173934 | 68 | 215 | 6.0 | 14.0 | 0.00 | 0.00 | 0.00 | 30 | 1004.9 |
| 20260508173438 | 68 | 255 | 6.0 | 14.0 | 0.00 | 0.00 | 0.00 | 32 | 1005.2 |
| 20260508172933 | 68 | 205 | 6.0 | 14.0 | 0.00 | 0.00 | 0.00 | 30 | 1005.3 |
| 20260508172717 | 68 | 288 | 3.0 | 7.0 | 0.00 | 0.00 | 0.00 | 33 | 1005.5 |
| 20260508172511 | 68 | 247 | 4.0 | 12.0 | 0.00 | 0.00 | 0.00 | 28 | 1005.4 |
| 20260508171437 | 67 | 295 | 4.0 | 9.0 | 0.00 | 0.00 | 0.00 | 32 | 1005.5 |
| 20260508170935 | 67 | 271 | 4.0 | 9.0 | 0.00 | 0.00 | 0.00 | 33 | 1005.6 |
| 20260508170434 | 66 | 201 | 5.0 | 10.0 | 0.00 | 0.00 | 0.00 | 31 | 1005.7 |
| 20260508165933 | 66 | 229 | 5.0 | 10.0 | 0.00 | 0.00 | 0.00 | 30 | 1005.7 |
| 20260508165435 | 65 | 240 | 5.0 | 10.0 | 0.00 | 0.00 | 0.00 | 31 | 1005.8 |
| 20260508164932 | 65 | 217 | 5.0 | 11.0 | 0.00 | 0.00 | 0.00 | 31 | 1005.9 |
| 20260508164435 | 65 | 267 | 6.0 | 11.0 | 0.00 | 0.00 | 0.00 | 31 | 1005.9 |
| 20260508163930 | 64 | 219 | 6.0 | 11.0 | 0.00 | 0.00 | 0.00 | 32 | 1006.0 |
| 20260508163432 | 64 | 192 | 6.0 | 10.0 | 0.00 | 0.00 | 0.00 | 32 | 1006.2 |
| 20260508162930 | 64 | 217 | 6.0 | 11.0 | 0.00 | 0.00 | 0.00 | 31 | 1006.3 |
| 20260508162433 | 64 | 206 | 6.0 | 12.0 | 0.00 | 0.00 | 0.00 | 32 | 1006.4 |
| 20260508161932 | 64 | 211 | 5.0 | 12.0 | 0.00 | 0.00 | 0.00 | 31 | 1006.5 |
| 20260508161433 | 64 | 202 | 4.0 | 9.0 | 0.00 | 0.00 | 0.00 | 33 | 1006.6 |
| 20260508161150 | 64 | 217 | 5.0 | 10.0 | 0.00 | 0.00 | 0.00 | 34 | 1006.6 |
| 20260508161003 | 64 | 219 | 5.0 | 10.0 | 0.00 | 0.00 | 0.00 | 33 | 1006.7 |
| 20260508155929 | 64 | 218 | 5.0 | 9.0 | 0.00 | 0.00 | 0.00 | 31 | 1006.7 |
| 20260508155433 | 64 | 215 | 4.0 | 10.0 | 0.00 | 0.00 | 0.00 | 33 | 1006.8 |
| 20260508154946 | 62 | 273 | 5.0 | 10.0 | 0.00 | 0.00 | 0.00 | 32 | 1007.0 |
| 20260508154933 | 63 | 284 | 4.0 | 10.0 | 0.00 | 0.00 | 0.00 | 34 | 1006.9 |
| 20260508154922 | 62 | 212 | 6.0 | 10.0 | 0.00 | 0.00 | 0.00 | 31 | 1007.0 |
| 20260508154546 | 63 | 296 | 4.0 | 10.0 | 0.00 | 0.00 | 0.00 | 34 | 1007.0 |
| 20260508152931 | 62 | 182 | 5.0 | 10.0 | 0.00 | 0.00 | 0.00 | 32 | 1007.0 |
| 20260508152428 | 62 | 219 | 3.0 | 9.0 | 0.00 | 0.00 | 0.00 | 35 | 1007.1 |
| 20260508151931 | 62 | 288 | 4.0 | 8.0 | 0.00 | 0.00 | 0.00 | 34 | 1007.1 |
| 20260508151430 | 61 | 211 | 5.0 | 9.0 | 0.00 | 0.00 | 0.00 | 34 | 1007.2 |
| 20260508150933 | 61 | 241 | 6.0 | 10.0 | 0.00 | 0.00 | 0.00 | 36 | 1007.2 |
| 20260508150433 | 61 | 184 | 6.0 | 10.0 | 0.00 | 0.00 | 0.00 | 33 | 1007.3 |
| 20260508150403 | 61 | 228 | 5.0 | 9.0 | 0.00 | 0.00 | 0.00 | 35 | 1007.4 |
| 20260508150333 | 60 | 258 | 5.0 | 10.0 | 0.00 | 0.00 | 0.00 | 34 | 1007.3 |
| 20260508150026 | 61 | 209 | 6.0 | 10.0 | 0.00 | 0.00 | 0.00 | 32 | 1007.3 |
| 20260508144433 | 60 | 211 | 4.0 | 10.0 | 0.00 | 0.00 | 0.00 | 35 | 1007.4 |
| 20260508143932 | 60 | 211 | 3.0 | 7.0 | 0.00 | 0.00 | 0.00 | 36 | 1007.3 |
| 20260508143430 | 60 | 226 | 2.0 | 6.0 | 0.00 | 0.00 | 0.00 | 36 | 1007.4 |
| 20260508142933 | 60 | 280 | 1.0 | 6.0 | 0.00 | 0.00 | 0.00 | 38 | 1007.5 |
| 20260508142720 | 59 | 252 | 0.0 | 2.0 | 0.00 | 0.00 | 0.00 | 36 | 1007.6 |
| 20260508142506 | 59 | 236 | 1.0 | 3.0 | 0.00 | 0.00 | 0.00 | 38 | 1007.5 |
| 20260508141752 | 60 | 264 | 0.0 | 1.0 | 0.00 | 0.00 | 0.00 | 36 | 1007.7 |
| 20260508141513 | 60 | 252 | 0.0 | 2.0 | 0.00 | 0.00 | 0.00 | 36 | 1007.6 |
| 20260508140714 | 59 | 355 | 0.0 | 0.0 | 0.00 | 0.00 | 0.00 | 41 | 1007.7 |
| 20260508140505 | 60 | 355 | 0.0 | 0.0 | 0.00 | 0.00 | 0.00 | 39 | 1007.7 |
| 20260508135432 | 58 | 355 | 0.0 | 0.0 | 0.00 | 0.00 | 0.00 | 41 | 1007.7 |
| 20260508134931 | 57 | 355 | 0.0 | 0.0 | 0.00 | 0.00 | 0.00 | 42 | 1007.7 |
| 20260508134430 | 56 | 355 | 0.0 | 0.0 | 0.00 | 0.00 | 0.00 | 41 | 1007.8 |
| 20260508133936 | 56 | 355 | 0.0 | 0.0 | 0.00 | 0.00 | 0.00 | 41 | 1007.7 |
| 20260508133429 | 55 | 355 | 0.0 | 0.0 | 0.00 | 0.00 | 0.00 | 43 | 1007.8 |
| 20260508132929 | 53 | 355 | 0.0 | 0.0 | 0.00 | 0.00 | 0.00 | 46 | 1007.9 |
| 20260508132434 | 52 | 355 | 0.0 | 2.0 | 0.00 | 0.00 | 0.00 | 49 | 1008.0 |
| 20260508131934 | 50 | 355 | 1.0 | 4.0 | 0.00 | 0.00 | 0.00 | 52 | 1008.0 |
| 20260508131434 | 49 | 355 | 1.0 | 4.0 | 0.00 | 0.00 | 0.00 | 57 | 1008.0 |
| 20260508130929 | 47 | 5 | 0.0 | 2.0 | 0.00 | 0.00 | 0.00 | 61 | 1008.0 |
| 20260508130740 | 45 | 5 | 0.0 | 0.0 | 0.00 | 0.00 | 0.00 | 66 | 1008.0 |
| 20260508125929 | 44 | 5 | 0.0 | 0.0 | 0.00 | 0.00 | 0.00 | 72 | 1008.0 |
| 20260508125732 | 43 | 5 | 0.0 | 0.0 | 0.00 | 0.00 | 0.00 | 75 | 1008.0 |
| 20260508124929 | 42 | 5 | 0.0 | 0.0 | 0.00 | 0.00 | 0.00 | 75 | 1008.0 |
| 20260508124429 | 41 | 5 | 0.0 | 0.0 | 0.00 | 0.00 | 0.00 | 74 | 1008.0 |
| 20260508123929 | 40 | 5 | 0.0 | 0.0 | 0.00 | 0.00 | 0.00 | 73 | 1007.9 |
| 20260508123429 | 40 | 5 | 0.0 | 0.0 | 0.00 | 0.00 | 0.00 | 75 | 1007.9 |
| 20260508122929 | 39 | 5 | 0.0 | 0.0 | 0.00 | 0.00 | 0.00 | 75 | 1007.8 |
| 20260508122429 | 39 | 5 | 0.0 | 0.0 | 0.00 | 0.00 | 0.00 | 76 | 1007.9 |
| 20260508121929 | 38 | 5 | 0.0 | 0.0 | 0.00 | 0.00 | 0.00 | 76 | 1007.9 |
| 20260508121429 | 37 | 5 | 0.0 | 0.0 | 0.00 | 0.00 | 0.00 | 76 | 1007.9 |
| 20260508120929 | 37 | 5 | 0.0 | 0.0 | 0.00 | 0.00 | 0.00 | 77 | 1007.9 |
| 20260508120429 | 36 | 5 | 0.0 | 0.0 | 0.00 | 0.00 | 0.00 | 79 | 1007.9 |
| 20260508115929 | 35 | 5 | 0.0 | 0.0 | 0.00 | 0.00 | 0.00 | 80 | 1007.8 |
| 20260508115431 | 35 | 5 | 0.0 | 0.0 | 0.00 | 0.00 | 0.00 | 82 | 1007.7 |
| 20260508114932 | 34 | 5 | 0.0 | 0.0 | 0.00 | 0.00 | 0.00 | 83 | 1007.8 |
| 20260508114430 | 33 | 5 | 0.0 | 0.0 | 0.00 | 0.00 | 0.00 | 82 | 1007.8 |
| 20260508113929 | 33 | 5 | 0.0 | 0.0 | 0.00 | 0.00 | 0.00 | 82 | 1007.7 |
| 20260508113429 | 32 | 5 | 0.0 | 0.0 | 0.00 | 0.00 | 0.00 | 82 | 1007.7 |
| 20260508112930 | 32 | 5 | 0.0 | 0.0 | 0.00 | 0.00 | 0.00 | 82 | 1007.7 |
| 20260508112428 | 32 | 5 | 0.0 | 0.0 | 0.00 | 0.00 | 0.00 | 81 | 1007.8 |
| 20260508111929 | 32 | 5 | 0.0 | 0.0 | 0.00 | 0.00 | 0.00 | 81 | 1007.7 |
| 20260508111429 | 32 | 5 | 0.0 | 0.0 | 0.00 | 0.00 | 0.00 | 81 | 1007.7 |
| 20260508110929 | 32 | 5 | 0.0 | 0.0 | 0.00 | 0.00 | 0.00 | 81 | 1007.7 |
| 20260508110429 | 32 | 5 | 0.0 | 0.0 | 0.00 | 0.00 | 0.00 | 80 | 1007.7 |
| 20260508105929 | 32 | 5 | 0.0 | 0.0 | 0.00 | 0.00 | 0.00 | 80 | 1007.7 |
| 20260508105429 | 32 | 5 | 0.0 | 0.0 | 0.00 | 0.00 | 0.00 | 79 | 1007.8 |
| 20260508104929 | 33 | 5 | 0.0 | 0.0 | 0.00 | 0.00 | 0.00 | 79 | 1007.9 |
| 20260508104429 | 33 | 5 | 0.0 | 0.0 | 0.00 | 0.00 | 0.00 | 79 | 1007.9 |
| 20260508104230 | 33 | 5 | 0.0 | 0.0 | 0.00 | 0.00 | 0.00 | 79 | 1007.8 |
| 20260508103738 | 33 | 5 | 0.0 | 0.0 | 0.00 | 0.00 | 0.00 | 79 | 1007.8 |
| 20260508102930 | 33 | 5 | 0.0 | 0.0 | 0.00 | 0.00 | 0.00 | 78 | 1007.8 |
| 20260508102429 | 33 | 5 | 0.0 | 0.0 | 0.00 | 0.00 | 0.00 | 78 | 1007.8 |
| 20260508101929 | 33 | 5 | 0.0 | 0.0 | 0.00 | 0.00 | 0.00 | 78 | 1007.8 |
| 20260508101429 | 33 | 5 | 0.0 | 0.0 | 0.00 | 0.00 | 0.00 | 78 | 1007.8 |
| 20260508100929 | 33 | 5 | 0.0 | 0.0 | 0.00 | 0.00 | 0.00 | 78 | 1007.9 |
| 20260508100428 | 33 | 5 | 0.0 | 0.0 | 0.00 | 0.00 | 0.00 | 78 | 1007.9 |
| 20260508095928 | 33 | 5 | 0.0 | 0.0 | 0.00 | 0.00 | 0.00 | 77 | 1008.0 |
| 20260508095431 | 33 | 5 | 0.0 | 0.0 | 0.00 | 0.00 | 0.00 | 77 | 1008.0 |
| 20260508094929 | 33 | 5 | 0.0 | 0.0 | 0.00 | 0.00 | 0.00 | 76 | 1008.0 |
| 20260508094731 | 33 | 5 | 0.0 | 0.0 | 0.00 | 0.00 | 0.00 | 75 | 1008.0 |
| 20260508094018 | 34 | 5 | 0.0 | 0.0 | 0.00 | 0.00 | 0.00 | 75 | 1008.0 |
| 20260508092931 | 34 | 5 | 0.0 | 0.0 | 0.00 | 0.00 | 0.00 | 75 | 1008.1 |
| 20260508092428 | 34 | 5 | 0.0 | 0.0 | 0.00 | 0.00 | 0.00 | 74 | 1008.2 |
| 20260508091929 | 34 | 5 | 0.0 | 0.0 | 0.00 | 0.00 | 0.00 | 74 | 1008.2 |
| 20260508091430 | 34 | 5 | 0.0 | 0.0 | 0.00 | 0.00 | 0.00 | 74 | 1008.2 |
| 20260508090930 | 34 | 5 | 0.0 | 0.0 | 0.00 | 0.00 | 0.00 | 74 | 1008.2 |
| 20260508090431 | 34 | 5 | 0.0 | 0.0 | 0.00 | 0.00 | 0.00 | 74 | 1008.3 |
| 20260508085930 | 34 | 5 | 0.0 | 0.0 | 0.00 | 0.00 | 0.00 | 74 | 1008.3 |
| 20260508085431 | 34 | 5 | 0.0 | 0.0 | 0.00 | 0.00 | 0.00 | 74 | 1008.2 |
| 20260508084930 | 34 | 5 | 0.0 | 0.0 | 0.00 | 0.00 | 0.00 | 74 | 1008.3 |
| 20260508084745 | 34 | 5 | 0.0 | 0.0 | 0.00 | 0.00 | 0.00 | 74 | 1008.3 |
| 20260508083929 | 34 | 5 | 0.0 | 0.0 | 0.00 | 0.00 | 0.00 | 74 | 1008.3 |
| 20260508083431 | 34 | 5 | 0.0 | 0.0 | 0.00 | 0.00 | 0.00 | 75 | 1008.3 |
| 20260508083251 | 34 | 5 | 0.0 | 0.0 | 0.00 | 0.00 | 0.00 | 74 | 1008.3 |
| 20260508082429 | 34 | 5 | 0.0 | 0.0 | 0.00 | 0.00 | 0.00 | 73 | 1008.3 |
| 20260508081929 | 34 | 5 | 0.0 | 0.0 | 0.00 | 0.00 | 0.00 | 73 | 1008.3 |
| 20260508081428 | 35 | 5 | 0.0 | 0.0 | 0.00 | 0.00 | 0.00 | 73 | 1008.4 |
| 20260508080928 | 35 | 5 | 0.0 | 0.0 | 0.00 | 0.00 | 0.00 | 71 | 1008.4 |
| 20260508080429 | 35 | 5 | 0.0 | 0.0 | 0.00 | 0.00 | 0.00 | 71 | 1008.4 |
| 20260508080059 | 35 | 5 | 0.0 | 0.0 | 0.00 | 0.00 | 0.00 | 71 | 1008.4 |
| 20260508080019 | 35 | 5 | 0.0 | 0.0 | 0.00 | 0.00 | 0.00 | 71 | 1008.3 |
| 20260508074930 | 35 | 5 | 0.0 | 0.0 | 0.00 | 0.00 | 0.00 | 70 | 1008.4 |
| 20260508074430 | 35 | 5 | 0.0 | 0.0 | 0.00 | 0.00 | 0.00 | 69 | 1008.5 |
| 20260508073929 | 36 | 5 | 0.0 | 0.0 | 0.00 | 0.00 | 0.00 | 67 | 1008.6 |
| 20260508073429 | 36 | 5 | 0.0 | 0.0 | 0.00 | 0.00 | 0.00 | 67 | 1008.5 |
| 20260508072929 | 36 | 5 | 0.0 | 0.0 | 0.00 | 0.00 | 0.00 | 67 | 1008.5 |
| 20260508072429 | 36 | 5 | 0.0 | 0.0 | 0.00 | 0.00 | 0.00 | 67 | 1008.5 |
| 20260508071929 | 36 | 5 | 0.0 | 0.0 | 0.00 | 0.00 | 0.00 | 68 | 1008.6 |
| 20260508071428 | 36 | 5 | 0.0 | 0.0 | 0.00 | 0.00 | 0.00 | 67 | 1008.6 |
| 20260508070929 | 37 | 5 | 0.0 | 0.0 | 0.00 | 0.00 | 0.00 | 68 | 1008.7 |
| 20260508070429 | 37 | 5 | 0.0 | 0.0 | 0.00 | 0.00 | 0.00 | 67 | 1008.7 |
| 20260508065928 | 37 | 5 | 0.0 | 0.0 | 0.00 | 0.00 | 0.00 | 66 | 1008.8 |
| 20260508065429 | 37 | 5 | 0.0 | 0.0 | 0.00 | 0.00 | 0.00 | 66 | 1008.8 |
| 20260508064929 | 37 | 5 | 0.0 | 0.0 | 0.00 | 0.00 | 0.00 | 66 | 1008.8 |
| 20260508064429 | 37 | 5 | 0.0 | 0.0 | 0.00 | 0.00 | 0.00 | 66 | 1008.8 |
| 20260508064246 | 37 | 5 | 0.0 | 0.0 | 0.00 | 0.00 | 0.00 | 65 | 1008.9 |
| 20260508063428 | 37 | 5 | 0.0 | 0.0 | 0.00 | 0.00 | 0.00 | 64 | 1008.9 |
| 20260508062929 | 38 | 5 | 0.0 | 0.0 | 0.00 | 0.00 | 0.00 | 64 | 1009.0 |
| 20260508062749 | 38 | 5 | 0.0 | 0.0 | 0.00 | 0.00 | 0.00 | 63 | 1009.0 |
| 20260508061929 | 38 | 5 | 0.0 | 0.0 | 0.00 | 0.00 | 0.00 | 63 | 1009.1 |
| 20260508061430 | 38 | 5 | 0.0 | 0.0 | 0.00 | 0.00 | 0.00 | 63 | 1009.1 |
| 20260508061238 | 38 | 5 | 0.0 | 0.0 | 0.00 | 0.00 | 0.00 | 62 | 1009.1 |
| 20260508060428 | 38 | 5 | 0.0 | 0.0 | 0.00 | 0.00 | 0.00 | 62 | 1009.1 |
| 20260508055929 | 38 | 5 | 0.0 | 0.0 | 0.00 | 0.00 | 0.00 | 62 | 1009.2 |
| 20260508055429 | 39 | 5 | 0.0 | 0.0 | 0.00 | 0.00 | 0.00 | 60 | 1009.2 |
| 20260508054930 | 39 | 5 | 0.0 | 0.0 | 0.00 | 0.00 | 0.00 | 59 | 1009.2 |
| 20260508054430 | 39 | 5 | 0.0 | 0.0 | 0.00 | 0.00 | 0.00 | 60 | 1009.2 |
| 20260508053931 | 39 | 5 | 0.0 | 0.0 | 0.00 | 0.00 | 0.00 | 59 | 1009.1 |
| 20260508053431 | 39 | 5 | 0.0 | 0.0 | 0.00 | 0.00 | 0.00 | 59 | 1009.2 |
| 20260508052931 | 40 | 5 | 0.0 | 0.0 | 0.00 | 0.00 | 0.00 | 58 | 1009.3 |
| 20260508052430 | 40 | 5 | 0.0 | 0.0 | 0.00 | 0.00 | 0.00 | 57 | 1009.3 |
| 20260508052115 | 40 | 5 | 0.0 | 0.0 | 0.00 | 0.00 | 0.00 | 58 | 1009.3 |
| 20260508052036 | 40 | 5 | 0.0 | 0.0 | 0.00 | 0.00 | 0.00 | 57 | 1009.3 |
| 20260508051308 | 40 | 5 | 0.0 | 0.0 | 0.00 | 0.00 | 0.00 | 58 | 1009.4 |
| 20260508050853 | 40 | 5 | 0.0 | 0.0 | 0.00 | 0.00 | 0.00 | 58 | 1009.4 |
| 20260508045934 | 40 | 5 | 0.0 | 0.0 | 0.00 | 0.00 | 0.00 | 59 | 1009.3 |
| 20260508045432 | 40 | 5 | 0.0 | 0.0 | 0.00 | 0.00 | 0.00 | 57 | 1009.4 |
| 20260508044929 | 40 | 5 | 0.0 | 0.0 | 0.00 | 0.00 | 0.00 | 58 | 1009.4 |
| 20260508044739 | 41 | 5 | 0.0 | 0.0 | 0.00 | 0.00 | 0.00 | 58 | 1009.4 |
| 20260508043929 | 41 | 5 | 0.0 | 0.0 | 0.00 | 0.00 | 0.00 | 57 | 1009.4 |
| 20260508043736 | 41 | 5 | 0.0 | 0.0 | 0.00 | 0.00 | 0.00 | 56 | 1009.5 |
| 20260508043240 | 42 | 5 | 0.0 | 0.0 | 0.00 | 0.00 | 0.00 | 55 | 1009.5 |
| 20260508042430 | 42 | 5 | 0.0 | 0.0 | 0.00 | 0.00 | 0.00 | 54 | 1009.5 |
| 20260508041929 | 42 | 5 | 0.0 | 0.0 | 0.00 | 0.00 | 0.00 | 53 | 1009.5 |
| 20260508041431 | 42 | 5 | 0.0 | 0.0 | 0.00 | 0.00 | 0.00 | 52 | 1009.5 |
| 20260508040929 | 43 | 5 | 0.0 | 0.0 | 0.00 | 0.00 | 0.00 | 52 | 1009.5 |
| 20260508040428 | 43 | 5 | 0.0 | 0.0 | 0.00 | 0.00 | 0.00 | 51 | 1009.5 |
| 20260508035928 | 43 | 5 | 0.0 | 0.0 | 0.00 | 0.00 | 0.00 | 51 | 1009.5 |
| 20260508035429 | 43 | 5 | 0.0 | 0.0 | 0.00 | 0.00 | 0.00 | 49 | 1009.4 |
| 20260508034929 | 44 | 5 | 0.0 | 0.0 | 0.00 | 0.00 | 0.00 | 48 | 1009.5 |
| 20260508034429 | 44 | 5 | 0.0 | 0.0 | 0.00 | 0.00 | 0.00 | 49 | 1009.5 |
| 20260508033929 | 44 | 5 | 0.0 | 0.0 | 0.00 | 0.00 | 0.00 | 49 | 1009.5 |
| 20260508033429 | 45 | 5 | 0.0 | 0.0 | 0.00 | 0.00 | 0.00 | 48 | 1009.5 |
| 20260508032929 | 45 | 5 | 0.0 | 0.0 | 0.00 | 0.00 | 0.00 | 47 | 1009.4 |
| 20260508032431 | 45 | 5 | 0.0 | 0.0 | 0.00 | 0.00 | 0.00 | 45 | 1009.4 |
| 20260508031928 | 45 | 5 | 0.0 | 0.0 | 0.00 | 0.00 | 0.00 | 46 | 1009.4 |
| 20260508031431 | 46 | 5 | 0.0 | 0.0 | 0.00 | 0.00 | 0.00 | 45 | 1009.4 |
| 20260508030929 | 46 | 5 | 0.0 | 0.0 | 0.00 | 0.00 | 0.00 | 45 | 1009.4 |
| 20260508030739 | 46 | 5 | 0.0 | 0.0 | 0.00 | 0.00 | 0.00 | 43 | 1009.4 |
| 20260508025929 | 46 | 5 | 0.0 | 0.0 | 0.00 | 0.00 | 0.00 | 43 | 1009.4 |
| 20260508025733 | 46 | 315 | 0.0 | 0.0 | 0.00 | 0.00 | 0.00 | 43 | 1009.4 |
| 20260508025052 | 47 | 315 | 0.0 | 0.0 | 0.00 | 0.00 | 0.00 | 41 | 1009.4 |
| 20260508025025 | 47 | 315 | 0.0 | 0.0 | 0.00 | 0.00 | 0.00 | 42 | 1009.4 |
| 20260508023930 | 47 | 315 | 0.0 | 0.0 | 0.00 | 0.00 | 0.00 | 41 | 1009.4 |
| 20260508023428 | 48 | 315 | 0.0 | 1.0 | 0.00 | 0.00 | 0.00 | 39 | 1009.4 |
| 20260508022928 | 49 | 315 | 0.0 | 1.0 | 0.00 | 0.00 | 0.00 | 38 | 1009.3 |
| 20260508022737 | 49 | 315 | 0.0 | 1.0 | 0.00 | 0.00 | 0.00 | 37 | 1009.3 |
| 20260508021930 | 49 | 315 | 1.0 | 2.0 | 0.00 | 0.00 | 0.00 | 35 | 1009.2 |
| 20260508021429 | 49 | 315 | 1.0 | 2.0 | 0.00 | 0.00 | 0.00 | 35 | 1009.2 |
| 20260508020930 | 49 | 315 | 1.0 | 2.0 | 0.00 | 0.00 | 0.00 | 35 | 1009.2 |
| 20260508020730 | 50 | 315 | 1.0 | 2.0 | 0.00 | 0.00 | 0.00 | 34 | 1009.1 |
| 20260508015929 | 50 | 315 | 1.0 | 2.0 | 0.00 | 0.00 | 0.00 | 34 | 1009.0 |
| 20260508015725 | 50 | 315 | 2.0 | 2.0 | 0.00 | 0.00 | 0.00 | 34 | 1009.0 |
| 20260508014929 | 50 | 315 | 2.0 | 2.0 | 0.00 | 0.00 | 0.00 | 34 | 1008.9 |
| 20260508014430 | 50 | 315 | 2.0 | 3.0 | 0.00 | 0.00 | 0.00 | 34 | 1008.9 |
| 20260508013930 | 50 | 315 | 2.0 | 3.0 | 0.00 | 0.00 | 0.00 | 34 | 1008.9 |
| 20260508013430 | 51 | 315 | 2.0 | 3.0 | 0.00 | 0.00 | 0.00 | 34 | 1008.8 |
| 20260508012930 | 51 | 315 | 1.0 | 3.0 | 0.00 | 0.00 | 0.00 | 35 | 1008.8 |
| 20260508012430 | 51 | 315 | 2.0 | 3.0 | 0.00 | 0.00 | 0.00 | 35 | 1008.7 |
| 20260508011930 | 52 | 315 | 2.0 | 4.0 | 0.00 | 0.00 | 0.00 | 34 | 1008.7 |
| 20260508011429 | 52 | 315 | 2.0 | 4.0 | 0.00 | 0.00 | 0.00 | 33 | 1008.7 |
| 20260508011240 | 53 | 315 | 3.0 | 5.0 | 0.00 | 0.00 | 0.00 | 34 | 1008.7 |
| 20260508010430 | 53 | 315 | 4.0 | 8.0 | 0.00 | 0.00 | 0.00 | 32 | 1008.6 |
| 20260508005931 | 53 | 315 | 4.0 | 8.0 | 0.00 | 0.00 | 0.00 | 32 | 1008.6 |
| 20260508005430 | 53 | 319 | 4.0 | 6.0 | 0.00 | 0.00 | 0.00 | 32 | 1008.6 |
| 20260508004930 | 54 | 312 | 4.0 | 8.0 | 0.00 | 0.00 | 0.00 | 31 | 1008.5 |
| 20260508004430 | 54 | 312 | 5.0 | 8.0 | 0.00 | 0.00 | 0.00 | 32 | 1008.5 |
| 20260508003931 | 54 | 316 | 5.0 | 8.0 | 0.00 | 0.00 | 0.00 | 30 | 1008.4 |
| 20260508003431 | 54 | 313 | 5.0 | 7.0 | 0.00 | 0.00 | 0.00 | 32 | 1008.4 |
| 20260508002929 | 55 | 317 | 5.0 | 7.0 | 0.00 | 0.00 | 0.00 | 30 | 1008.4 |
| 20260508002740 | 55 | 314 | 4.0 | 6.0 | 0.00 | 0.00 | 0.00 | 33 | 1008.4 |
| 20260508001931 | 55 | 306 | 3.0 | 5.0 | 0.00 | 0.00 | 0.00 | 34 | 1008.3 |
| 20260508001431 | 55 | 307 | 4.0 | 7.0 | 0.00 | 0.00 | 0.00 | 35 | 1008.3 |
| 20260508000931 | 55 | 308 | 6.0 | 9.0 | 0.00 | 0.00 | 0.00 | 31 | 1008.2 |
| 20260508000431 | 55 | 298 | 6.0 | 9.0 | 0.00 | 0.00 | 0.00 | 30 | 1008.3 |
| 20260507235931 | 56 | 310 | 5.0 | 9.0 | 0.00 | 0.00 | 0.00 | 30 | 1008.2 |
| 20260507235430 | 56 | 299 | 6.0 | 10.0 | 0.00 | 0.00 | 0.00 | 30 | 1008.3 |
| 20260507235242 | 56 | 310 | 6.0 | 10.0 | 0.00 | 0.00 | 0.00 | 30 | 1008.2 |
| 20260507234430 | 56 | 308 | 4.0 | 8.0 | 0.00 | 0.00 | 0.00 | 31 | 1008.2 |
| 20260507233931 | 56 | 296 | 5.0 | 8.0 | 0.00 | 0.00 | 0.00 | 31 | 1008.2 |
| 20260507233430 | 56 | 313 | 6.0 | 9.0 | 0.00 | 0.00 | 0.00 | 31 | 1008.2 |
| 20260507232930 | 56 | 306 | 6.0 | 9.0 | 0.00 | 0.00 | 0.00 | 31 | 1008.2 |
| 20260507232431 | 56 | 295 | 6.0 | 9.0 | 0.00 | 0.00 | 0.00 | 31 | 1008.2 |
| 20260507231930 | 56 | 306 | 6.0 | 9.0 | 0.00 | 0.00 | 0.00 | 31 | 1008.1 |
| 20260507231728 | 57 | 302 | 7.0 | 11.0 | 0.00 | 0.00 | 0.00 | 30 | 1008.1 |
| 20260507230931 | 57 | 306 | 6.0 | 11.0 | 0.00 | 0.00 | 0.00 | 30 | 1008.1 |
| 20260507230741 | 57 | 299 | 5.0 | 9.0 | 0.00 | 0.00 | 0.00 | 32 | 1008.2 |
| 20260507225932 | 57 | 300 | 6.0 | 9.0 | 0.00 | 0.00 | 0.00 | 29 | 1008.2 |
| 20260507225430 | 57 | 310 | 7.0 | 12.0 | 0.00 | 0.00 | 0.00 | 30 | 1008.2 |